createdAt,value
2022-09-05T00:02:31.685Z,102066.75
2022-09-05T00:05:23.315Z,102068.41
2022-09-05T00:08:04.936Z,102071.56
2022-09-05T00:11:03.429Z,102068.03
2022-09-05T00:13:39.769Z,102068.53
2022-09-05T00:16:43.296Z,102069.72
2022-09-05T00:24:17.067Z,102066.56
2022-09-05T00:24:31.278Z,102068.63
2022-09-05T00:25:54.284Z,102060.47
2022-09-05T00:28:32.854Z,102063.75
2022-09-05T00:31:56.140Z,102069.59
2022-09-05T00:34:48.107Z,102067.94
2022-09-05T00:37:32.531Z,102063.16
2022-09-05T00:40:20.202Z,102063.16
2022-09-05T00:42:52.549Z,102063.03
2022-09-05T00:45:32.997Z,102066.19
2022-09-05T00:48:23.523Z,102062.09
2022-09-05T00:51:21.055Z,102060.47
2022-09-05T00:54:24.774Z,102067.47
2022-09-05T00:57:31.487Z,102064.22
2022-09-05T01:00:22.765Z,102059.84
2022-09-05T01:03:26.251Z,102063.03
2022-09-05T01:06:17.527Z,102056.00
2022-09-05T01:09:26.234Z,102061.84
2022-09-05T01:12:14.116Z,102063.25
2022-09-05T01:15:19.622Z,102051.56
2022-09-05T01:18:14.821Z,102065.63
2022-09-05T01:21:29.951Z,102059.06
2022-09-05T01:24:37.557Z,102066.53
2022-09-05T01:29:17.388Z,102055.44
2022-09-05T01:30:47.848Z,102055.75
2022-09-05T01:33:44.079Z,102051.66
2022-09-05T01:36:45.770Z,102058.00
2022-09-05T01:40:10.459Z,102049.22
2022-09-05T01:42:39.008Z,102050.75
2022-09-05T01:45:20.605Z,102048.06
2022-09-05T01:48:04.275Z,102045.34
2022-09-05T01:50:51.609Z,102043.94
2022-09-05T01:53:38.966Z,102043.94
2022-09-05T01:56:36.008Z,102039.03
2022-09-05T01:59:23.338Z,102039.84
2022-09-05T02:02:18.941Z,102039.47
2022-09-05T02:05:48.486Z,102033.75
2022-09-05T02:08:39.640Z,102033.75
2022-09-05T02:11:11.061Z,102034.94
2022-09-05T02:14:00.037Z,102041.59
2022-09-05T02:16:43.476Z,102036.22
2022-09-05T02:19:22.962Z,102034.59
2022-09-05T02:22:02.889Z,102040.19
2022-09-05T02:24:38.293Z,102037.50
2022-09-05T02:27:48.988Z,102036.91
2022-09-05T02:30:17.117Z,102041.25
2022-09-05T02:32:57.722Z,102047.44
2022-09-05T02:35:38.552Z,102039.16
2022-09-05T02:39:09.175Z,102034.34
2022-09-05T02:45:06.637Z,102039.97
2022-09-05T02:45:20.600Z,102038.31
2022-09-05T02:47:13.305Z,102037.50
2022-09-05T02:52:54.925Z,102034.22
2022-09-05T02:57:26.610Z,102030.13
2022-09-05T02:57:33.105Z,102032.69
2022-09-05T02:59:11.548Z,102033.97
2022-09-05T03:02:02.076Z,102034.22
2022-09-05T03:04:48.148Z,102040.59
2022-09-05T03:07:46.754Z,102035.69
2022-09-05T03:10:53.950Z,102027.84
2022-09-05T03:14:02.190Z,102026.66
2022-09-05T03:17:26.446Z,102024.69
2022-09-05T03:20:54.363Z,102025.97
2022-09-05T03:24:17.515Z,102027.25
2022-09-05T03:27:39.911Z,102028.16
2022-09-05T03:30:16.106Z,102032.47
2022-09-05T03:33:43.043Z,102028.72
2022-09-05T03:37:00.454Z,102029.19
2022-09-05T03:40:19.161Z,102037.09
2022-09-05T03:43:06.808Z,102039.81
2022-09-05T03:46:05.126Z,102031.84
2022-09-05T03:51:28.165Z,102038.03
2022-09-05T03:57:13.604Z,102034.53
2022-09-05T03:57:22.792Z,102041.75
2022-09-05T03:58:57.669Z,102043.88
2022-09-05T04:07:08.785Z,102043.41
2022-09-05T04:08:23.603Z,102040.09
2022-09-05T04:08:23.678Z,102034.72
2022-09-05T04:10:29.312Z,102036.84
2022-09-05T04:13:05.674Z,102038.47
2022-09-05T04:15:42.388Z,102036.84
2022-09-05T04:18:33.744Z,102038.94
2022-09-05T04:21:10.218Z,102046.75
2022-09-05T04:24:02.935Z,102036.94
2022-09-05T04:26:59.784Z,102040.66
2022-09-05T04:29:42.954Z,102052.81
2022-09-05T04:32:29.484Z,102057.16
2022-09-05T04:35:23.607Z,102055.31
2022-09-05T04:37:59.488Z,102060.44
2022-09-05T04:40:41.290Z,102060.69
2022-09-05T04:43:18.977Z,102055.06
2022-09-05T04:45:53.638Z,102061.47
2022-09-05T04:48:32.519Z,102060.88
2022-09-05T04:51:12.911Z,102063.00
2022-09-05T04:54:30.104Z,102067.19
2022-09-05T04:57:15.221Z,102068.81
2022-09-05T05:06:02.647Z,102073.75
2022-09-05T05:06:14.662Z,102079.13
2022-09-05T05:06:18.514Z,102067.34
2022-09-05T05:08:52.250Z,102075.97
2022-09-05T05:16:42.527Z,102080.91
2022-09-05T05:18:10.901Z,102087.09
2022-09-05T05:18:12.356Z,102083.59
2022-09-05T05:20:41.281Z,102083.94
2022-09-05T05:23:16.929Z,102089.72
2022-09-05T05:25:51.830Z,102084.94
2022-09-05T05:28:31.535Z,102086.34
2022-09-05T05:31:13.718Z,102088.78
2022-09-05T05:33:46.775Z,102087.50
2022-09-05T05:36:23.007Z,102092.06
2022-09-05T05:39:02.213Z,102092.31
2022-09-05T05:41:41.513Z,102092.53
2022-09-05T05:44:15.857Z,102091.28
2022-09-05T05:46:47.583Z,102099.94
2022-09-05T05:49:40.362Z,102096.84
2022-09-05T05:52:38.079Z,102097.44
2022-09-05T05:55:52.853Z,102100.28
2022-09-05T05:58:38.687Z,102101.44
2022-09-05T06:01:53.304Z,102112.00
2022-09-05T06:05:08.231Z,102105.94
2022-09-05T06:09:44.550Z,102110.38
2022-09-05T06:14:56.698Z,102104.66
2022-09-05T06:15:27.920Z,102107.09
2022-09-05T06:18:45.829Z,102113.69
2022-09-05T06:22:20.616Z,102107.84
2022-09-05T06:26:01.065Z,102109.09
2022-09-05T06:28:42.910Z,102118.28
2022-09-05T06:31:34.951Z,102123.84
2022-09-05T06:34:35.725Z,102125.00
2022-09-05T06:37:22.402Z,102123.16
2022-09-05T06:40:09.802Z,102125.06
2022-09-05T06:43:21.795Z,102124.13
2022-09-05T06:46:54.503Z,102113.72
2022-09-05T06:49:29.712Z,102120.19
2022-09-05T06:53:19.510Z,102111.03
2022-09-05T06:56:09.875Z,102117.03
2022-09-05T06:59:35.719Z,102114.38
2022-09-05T07:02:18.266Z,102119.59
2022-09-05T07:05:39.691Z,102125.34
2022-09-05T07:08:34.728Z,102126.25
2022-09-05T07:11:16.809Z,102124.09
2022-09-05T07:14:00.427Z,102121.59
2022-09-05T07:16:41.981Z,102128.59
2022-09-05T07:19:30.177Z,102132.44
2022-09-05T07:22:46.041Z,102125.41
2022-09-05T07:25:18.025Z,102124.38
2022-09-05T07:28:29.330Z,102126.25
2022-09-05T07:30:52.353Z,102123.63
2022-09-05T07:33:21.879Z,102127.31
2022-09-05T07:35:53.679Z,102134.91
2022-09-05T07:38:49.069Z,102129.03
2022-09-05T07:41:23.563Z,102132.97
2022-09-05T07:43:58.859Z,102136.69
2022-09-05T07:46:32.403Z,102137.44
2022-09-05T07:49:05.740Z,102129.47
2022-09-05T07:56:49.148Z,102126.28
2022-09-05T07:56:52.882Z,102120.31
2022-09-05T07:57:30.874Z,102124.06
2022-09-05T08:00:07.664Z,102125.75
2022-09-05T08:02:54.658Z,102136.13
2022-09-05T08:05:35.187Z,102129.28
2022-09-05T08:08:14.200Z,102133.03
2022-09-05T08:11:24.204Z,102135.44
2022-09-05T08:14:43.693Z,102132.19
2022-09-05T08:16:47.096Z,102136.06
2022-09-05T08:19:47.005Z,102139.66
2022-09-05T08:22:22.125Z,102142.59
2022-09-05T08:25:02.951Z,102134.59
2022-09-05T08:27:44.357Z,102130.88
2022-09-05T08:30:26.651Z,102134.56
2022-09-05T08:33:10.349Z,102125.16
2022-09-05T08:35:45.482Z,102129.22
2022-09-05T08:38:15.595Z,102134.53
2022-09-05T08:40:55.048Z,102132.53
2022-09-05T08:44:20.995Z,102119.88
2022-09-05T08:46:46.182Z,102121.97
2022-09-05T08:49:57.840Z,102119.25
2022-09-05T08:52:39.630Z,102106.69
2022-09-05T08:55:18.963Z,102111.09
2022-09-05T08:58:54.040Z,102107.44
2022-09-05T09:02:45.439Z,102103.69
2022-09-05T09:05:14.291Z,102100.16
2022-09-05T09:07:52.519Z,102096.44
2022-09-05T09:10:49.086Z,102098.47
2022-09-05T09:13:36.437Z,102098.69
2022-09-05T09:16:22.002Z,102091.50
2022-09-05T09:19:08.328Z,102093.50
2022-09-05T09:21:46.388Z,102090.53
2022-09-05T09:24:32.613Z,102091.38
2022-09-05T09:27:06.457Z,102092.81
2022-09-05T09:29:40.324Z,102102.53
2022-09-05T09:32:15.065Z,102089.09
2022-09-05T09:35:00.877Z,102081.16
2022-09-05T09:38:24.174Z,102098.03
2022-09-05T09:41:28.429Z,102088.66
2022-09-05T09:45:22.771Z,102085.66
2022-09-05T09:48:35.986Z,102084.56
2022-09-05T09:51:27.554Z,102079.66
2022-09-05T09:54:26.944Z,102069.06
2022-09-05T09:57:29.517Z,102073.31
2022-09-05T10:00:11.875Z,102075.19
2022-09-05T10:07:10.662Z,102077.72
2022-09-05T10:10:52.403Z,102070.31
2022-09-05T10:10:55.126Z,102064.13
2022-09-05T10:13:33.698Z,102056.88
2022-09-05T10:16:34.316Z,102052.63
2022-09-05T10:23:18.917Z,102054.56
2022-09-05T10:26:32.661Z,102051.44
2022-09-05T10:29:33.270Z,102047.28
2022-09-05T10:35:07.670Z,102045.81
2022-09-05T10:35:13.322Z,102054.09
2022-09-05T10:38:00.728Z,102052.72
2022-09-05T10:41:07.979Z,102060.00
2022-09-05T10:43:31.154Z,102045.34
2022-09-05T10:46:39.729Z,102052.50
2022-09-05T10:49:10.936Z,102044.56
2022-09-05T10:51:52.148Z,102041.38
2022-09-05T10:54:38.937Z,102038.94
2022-09-05T10:57:34.015Z,102029.13
2022-09-05T11:02:19.304Z,102029.44
2022-09-05T11:03:42.265Z,102027.88
2022-09-05T11:06:17.060Z,102024.13
2022-09-05T11:09:07.154Z,102014.09
2022-09-05T11:11:46.858Z,102014.16
2022-09-05T11:14:49.352Z,102005.78
2022-09-05T11:17:32.198Z,102016.78
2022-09-05T11:20:46.868Z,102017.56
2022-09-05T11:23:21.635Z,102021.34
2022-09-05T11:26:00.890Z,102024.13
2022-09-05T11:28:57.642Z,102023.72
2022-09-05T11:32:56.533Z,102016.03
2022-09-05T11:39:47.317Z,102021.03
2022-09-05T11:40:06.173Z,102022.50
2022-09-05T11:42:18.973Z,102010.34
2022-09-05T11:45:49.799Z,102011.53
2022-09-05T11:48:58.496Z,102018.47
2022-09-05T11:52:30.359Z,102004.53
2022-09-05T11:55:32.808Z,102003.41
2022-09-05T11:58:45.159Z,102002.31
2022-09-05T12:01:38.393Z,102004.00
2022-09-05T12:05:48.993Z,102002.50
2022-09-05T12:08:01.987Z,102004.63
2022-09-05T12:10:48.529Z,102002.38
2022-09-05T12:13:36.976Z,102007.44
2022-09-05T12:16:26.643Z,102000.31
2022-09-05T12:19:18.989Z,102001.78
2022-09-05T12:22:23.720Z,101995.56
2022-09-05T12:27:36.510Z,101990.94
2022-09-05T12:29:34.243Z,101980.00
2022-09-05T12:33:24.277Z,101986.75
2022-09-05T12:36:06.730Z,101980.59
2022-09-05T12:40:56.403Z,101983.44
2022-09-05T12:41:44.542Z,101983.22
2022-09-05T12:44:44.990Z,101978.06
2022-09-05T12:47:28.848Z,101970.53
2022-09-05T12:50:14.484Z,101971.47
2022-09-05T12:52:47.392Z,101973.06
2022-09-05T12:55:26.394Z,101976.22
2022-09-05T13:02:57.874Z,101979.47
2022-09-05T13:03:04.349Z,101966.50
2022-09-05T13:04:15.985Z,101977.22
2022-09-05T13:06:44.489Z,101978.53
2022-09-05T13:09:23.244Z,101973.75
2022-09-05T13:14:58.079Z,101967.66
2022-09-05T13:15:18.614Z,101972.53
2022-09-05T13:17:59.363Z,101972.91
2022-09-05T13:20:36.513Z,101957.53
2022-09-05T13:23:19.927Z,101963.03
2022-09-05T13:25:58.334Z,101970.22
2022-09-05T13:28:39.083Z,101964.25
2022-09-05T13:38:05.626Z,101957.97
2022-09-05T13:38:19.617Z,101959.50
2022-09-05T13:38:20.555Z,101970.19
2022-09-05T13:39:55.936Z,101955.88
2022-09-05T13:42:28.921Z,101953.34
2022-09-05T13:45:00.826Z,101943.56
2022-09-05T13:47:56.413Z,101949.28
2022-09-05T13:50:28.605Z,101939.75
2022-09-05T13:53:05.005Z,101939.13
2022-09-05T13:55:45.275Z,101948.06
2022-09-05T13:58:29.054Z,101939.38
2022-09-05T14:01:27.032Z,101935.19
2022-09-05T14:08:33.533Z,101933.19
2022-09-05T14:11:51.368Z,101925.38
2022-09-05T14:17:51.503Z,101919.91
2022-09-05T14:20:42.925Z,101920.09
2022-09-05T14:23:15.209Z,101926.38
2022-09-05T14:25:50.110Z,101918.25
2022-09-05T14:28:27.883Z,101929.22
2022-09-05T14:35:33.313Z,101920.28
2022-09-05T14:37:52.009Z,101905.19
2022-09-05T14:37:55.739Z,101917.22
2022-09-05T14:40:47.179Z,101915.25
2022-09-05T14:44:03.232Z,101909.50
2022-09-05T14:46:57.250Z,101906.03
2022-09-05T14:50:04.167Z,101908.88
2022-09-05T14:52:35.469Z,101900.06
2022-09-05T15:02:42.156Z,101896.53
2022-09-05T15:02:52.810Z,101892.47
2022-09-05T15:06:39.165Z,101885.41
2022-09-05T15:12:18.208Z,101885.81
2022-09-05T15:12:27.674Z,101886.66
2022-09-05T15:15:13.926Z,101886.06
2022-09-05T15:17:48.462Z,101891.34
2022-09-05T15:20:31.663Z,101888.69
2022-09-05T15:22:59.409Z,101885.03
2022-09-05T15:25:47.691Z,101873.50
2022-09-05T15:28:20.756Z,101875.72
2022-09-05T15:31:05.056Z,101872.59
2022-09-05T15:33:34.198Z,101879.06
2022-09-05T15:36:04.319Z,101875.84
2022-09-05T15:38:55.422Z,101887.28
2022-09-05T15:41:25.484Z,101883.44
2022-09-05T15:44:04.042Z,101877.31
2022-09-05T15:46:49.175Z,101874.06
2022-09-05T15:49:32.922Z,101870.03
2022-09-05T15:52:05.171Z,101868.00
2022-09-05T15:54:39.458Z,101869.22
2022-09-05T15:57:17.709Z,101862.88
2022-09-05T15:59:53.324Z,101859.41
2022-09-05T16:02:26.734Z,101857.09
2022-09-05T16:10:30.048Z,101858.69
2022-09-05T16:10:50.570Z,101857.50
2022-09-05T16:14:36.480Z,101854.06
2022-09-05T16:23:13.115Z,101852.59
2022-09-05T16:23:25.119Z,101859.03
2022-09-05T16:23:39.660Z,101858.09
2022-09-05T16:26:10.499Z,101863.91
2022-09-05T16:28:45.865Z,101859.88
2022-09-05T16:31:20.542Z,101860.84
2022-09-05T16:33:48.862Z,101859.81
2022-09-05T16:36:24.395Z,101858.75
2022-09-05T16:38:59.820Z,101860.41
2022-09-05T16:41:46.084Z,101864.16
2022-09-05T16:44:24.010Z,101851.97
2022-09-05T16:47:11.203Z,101855.66
2022-09-05T16:49:50.775Z,101852.69
2022-09-05T16:52:26.435Z,101858.72
2022-09-05T16:55:04.045Z,101848.84
2022-09-05T16:57:39.882Z,101853.19
2022-09-05T17:00:10.546Z,101843.88
2022-09-05T17:02:50.302Z,101844.69
2022-09-05T17:05:29.807Z,101841.97
2022-09-05T17:08:21.643Z,101845.03
2022-09-05T17:10:57.497Z,101845.03
2022-09-05T17:13:43.295Z,101841.34
2022-09-05T17:16:22.089Z,101847.13
2022-09-05T17:18:52.661Z,101842.03
2022-09-05T17:21:46.942Z,101854.13
2022-09-05T17:29:25.039Z,101849.31
2022-09-05T17:29:26.824Z,101841.84
2022-09-05T17:32:59.615Z,101845.41
2022-09-05T17:35:54.323Z,101845.25
2022-09-05T17:38:58.866Z,101838.63
2022-09-05T17:42:14.651Z,101845.84
2022-09-05T17:44:53.626Z,101848.63
2022-09-05T17:47:35.346Z,101851.38
2022-09-05T17:50:18.934Z,101848.75
2022-09-05T17:53:26.779Z,101854.25
2022-09-05T17:56:13.438Z,101855.41
2022-09-05T17:59:06.228Z,101859.53
2022-09-05T18:01:35.216Z,101856.03
2022-09-05T18:04:15.974Z,101865.81
2022-09-05T18:07:00.386Z,101864.78
2022-09-05T18:10:07.597Z,101867.31
2022-09-05T18:13:13.870Z,101861.59
2022-09-05T18:16:12.121Z,101870.88
2022-09-05T18:19:33.241Z,101868.72
2022-09-05T18:21:53.030Z,101876.34
2022-09-05T18:24:33.293Z,101869.31
2022-09-05T18:27:30.900Z,101874.22
2022-09-05T18:30:09.854Z,101883.19
2022-09-05T18:32:47.263Z,101879.13
2022-09-05T18:35:37.606Z,101882.38
2022-09-05T18:38:50.116Z,101882.16
2022-09-05T18:41:22.312Z,101882.66
2022-09-05T18:44:12.637Z,101880.22
2022-09-05T18:46:47.093Z,101890.81
2022-09-05T18:50:25.752Z,101897.06
2022-09-05T18:52:23.361Z,101894.06
2022-09-05T18:55:33.968Z,101903.59
2022-09-05T18:57:58.862Z,101898.09
2022-09-05T19:00:44.524Z,101902.78
2022-09-05T19:03:22.918Z,101901.41
2022-09-05T19:06:34.701Z,101898.41
2022-09-05T19:08:55.953Z,101904.13
2022-09-05T19:11:34.175Z,101898.97
2022-09-05T19:14:29.006Z,101904.66
2022-09-05T19:17:08.527Z,101907.38
2022-09-05T19:20:31.934Z,101905.16
2022-09-05T19:23:09.970Z,101912.75
2022-09-05T19:25:42.701Z,101917.63
2022-09-05T19:32:56.034Z,101916.56
2022-09-05T19:36:46.873Z,101909.47
2022-09-05T19:37:12.521Z,101911.63
2022-09-05T19:45:41.013Z,101906.72
2022-09-05T19:47:37.378Z,101910.78
2022-09-05T19:47:40.056Z,101914.81
2022-09-05T19:48:26.099Z,101911.56
2022-09-05T19:50:56.128Z,101913.72
2022-09-05T19:53:24.465Z,101915.28
2022-09-05T19:55:53.843Z,101912.03
2022-09-05T19:58:24.374Z,101910.91
2022-09-05T20:01:04.771Z,101903.81
2022-09-05T20:03:39.430Z,101901.63
2022-09-05T20:06:30.180Z,101900.50
2022-09-05T20:09:14.610Z,101893.97
2022-09-05T20:11:49.755Z,101896.91
2022-09-05T20:14:29.037Z,101898.25
2022-09-05T20:17:01.373Z,101892.31
2022-09-05T20:19:32.769Z,101899.34
2022-09-05T20:22:17.442Z,101895.50
2022-09-05T20:24:55.718Z,101899.00
2022-09-05T20:27:29.634Z,101891.66
2022-09-05T20:30:01.173Z,101895.13
2022-09-05T20:32:39.772Z,101890.25
2022-09-05T20:38:28.314Z,101887.50
2022-09-05T20:43:15.472Z,101890.47
2022-09-05T20:43:35.225Z,101893.97
2022-09-05T20:44:00.022Z,101904.47
2022-09-05T20:48:31.832Z,101895.78
2022-09-05T20:54:10.245Z,101896.88
2022-09-05T20:54:21.958Z,101891.13
2022-09-05T20:55:41.272Z,101894.66
2022-09-05T20:58:13.045Z,101898.72
2022-09-05T21:01:20.370Z,101901.69
2022-09-05T21:03:39.758Z,101907.59
2022-09-05T21:06:19.975Z,101902.69
2022-09-05T21:08:47.668Z,101905.91
2022-09-05T21:11:15.978Z,101905.84
2022-09-05T21:13:52.479Z,101900.91
2022-09-05T21:16:30.562Z,101903.06
2022-09-05T21:18:57.972Z,101903.88
2022-09-05T21:21:30.034Z,101907.94
2022-09-05T21:24:17.414Z,101909.53
2022-09-05T21:26:48.042Z,101896.50
2022-09-05T21:29:27.430Z,101897.00
2022-09-05T21:32:03.952Z,101882.94
2022-09-05T21:34:45.098Z,101892.63
2022-09-05T21:37:15.381Z,101890.16
2022-09-05T21:39:59.678Z,101889.88
2022-09-05T21:47:03.504Z,101886.63
2022-09-05T21:47:41.435Z,101885.47
2022-09-05T21:48:10.525Z,101884.09
2022-09-05T21:50:45.149Z,101890.34
2022-09-05T21:53:55.152Z,101884.88
2022-09-05T21:59:15.176Z,101885.41
2022-09-05T21:59:36.630Z,101878.63
2022-09-05T22:01:55.734Z,101888.06
2022-09-05T22:04:24.737Z,101875.31
2022-09-05T22:06:54.142Z,101867.47
2022-09-05T22:09:22.925Z,101857.16
2022-09-05T22:11:51.219Z,101858.75
2022-09-05T22:14:19.641Z,101860.59
2022-09-05T22:16:50.462Z,101865.66
2022-09-05T22:19:37.165Z,101857.00
2022-09-05T22:22:16.898Z,101854.81
2022-09-05T22:24:50.496Z,101848.34
2022-09-05T22:27:20.678Z,101851.34
2022-09-05T22:29:50.410Z,101847.81
2022-09-05T22:32:34.471Z,101842.94
2022-09-05T22:35:28.265Z,101849.66
2022-09-05T22:38:00.909Z,101854.75
2022-09-05T22:40:30.763Z,101846.38
2022-09-05T22:43:00.008Z,101842.63
2022-09-05T22:45:29.595Z,101841.22
2022-09-05T22:47:57.456Z,101841.50
2022-09-05T22:50:26.565Z,101836.31
2022-09-05T22:52:55.255Z,101844.97
2022-09-05T22:55:22.530Z,101846.50
2022-09-05T22:57:49.874Z,101844.91
2022-09-05T23:00:17.410Z,101841.63
2022-09-05T23:02:47.865Z,101851.34
2022-09-05T23:05:17.758Z,101843.81
2022-09-05T23:07:44.991Z,101844.63
2022-09-05T23:10:13.884Z,101837.63
2022-09-05T23:12:41.143Z,101826.00
2022-09-05T23:15:09.937Z,101826.00
2022-09-05T23:17:37.237Z,101818.38
2022-09-05T23:20:05.672Z,101821.59
2022-09-05T23:22:36.186Z,101822.13
2022-09-05T23:25:03.822Z,101820.47
2022-09-05T23:27:36.886Z,101820.47
2022-09-05T23:30:07.234Z,101814.25
2022-09-05T23:32:34.843Z,101814.50
2022-09-05T23:35:02.249Z,101810.16
2022-09-05T23:37:29.509Z,101799.88
2022-09-05T23:39:56.801Z,101796.59
2022-09-05T23:42:24.177Z,101790.91
2022-09-05T23:44:52.777Z,101795.97
2022-09-05T23:47:20.122Z,101785.72
2022-09-05T23:49:47.341Z,101787.81
2022-09-05T23:52:14.589Z,101789.97
2022-09-05T23:54:41.828Z,101789.97
2022-09-05T23:57:09.085Z,101780.25
2022-09-05T23:59:36.290Z,101781.63
